Time;durP1;ratioP1;P1;durP2;ratioP2;P2;SDS_P1;SDS_P2;PMS_P1;PMS_P2;Temp;Humidity;BMP_temperature;BMP_pressure;BME280_temperature;BME280_humidity;BME280_pressure;Samples;Min_cycle;Max_cycle;Signal;HPM_P1;HPM_P2
2022/07/29 00:02:09;;;;;;;4.50;1.77;;;14.40;99.90;;;;;;4951250;28;20090;-87
2022/07/29 00:04:35;;;;;;;5.55;1.63;;;14.40;99.90;;;;;;4950706;28;20517;-88
2022/07/29 00:07:01;;;;;;;5.93;1.70;;;14.40;99.90;;;;;;4950159;28;20050;-87
2022/07/29 00:09:27;;;;;;;5.60;2.05;;;14.40;99.90;;;;;;4949128;28;20039;-88
2022/07/29 00:11:54;;;;;;;5.25;1.90;;;14.40;99.90;;;;;;4934062;28;20476;-87
2022/07/29 00:14:20;;;;;;;5.22;1.70;;;14.40;99.90;;;;;;4949775;28;20046;-87
2022/07/29 00:16:46;;;;;;;7.22;1.80;;;14.40;99.90;;;;;;4966466;28;20070;-87
2022/07/29 00:19:12;;;;;;;4.60;1.80;;;14.40;99.90;;;;;;4949765;28;20046;-88
2022/07/29 00:21:37;;;;;;;5.50;1.90;;;14.50;99.90;;;;;;4967724;28;20429;-88
2022/07/29 00:24:03;;;;;;;6.80;1.80;;;14.50;99.90;;;;;;4949383;28;20059;-88
2022/07/29 00:26:31;;;;;;;7.60;2.00;;;14.50;99.90;;;;;;4949779;28;20105;-88
2022/07/29 00:28:58;;;;;;;6.40;2.00;;;14.50;99.90;;;;;;4949223;28;20038;-88
2022/07/29 00:31:24;;;;;;;5.53;1.83;;;14.50;99.90;;;;;;4916502;29;20473;-87
2022/07/29 00:33:50;;;;;;;6.13;2.00;;;14.50;99.90;;;;;;4929375;28;20071;-88
2022/07/29 00:36:15;;;;;;;6.15;1.90;;;14.60;99.90;;;;;;4914895;28;20048;-88
2022/07/29 00:38:44;;;;;;;6.10;1.85;;;14.50;99.90;;;;;;4915183;29;20038;-88
2022/07/29 00:41:11;;;;;;;5.13;1.88;;;14.50;99.90;;;;;;4914753;28;20497;-87
2022/07/29 00:43:37;;;;;;;6.45;1.92;;;14.60;99.90;;;;;;4929243;28;20122;-87
2022/07/29 00:46:03;;;;;;;5.97;1.95;;;14.60;99.90;;;;;;4930705;28;20134;-88
2022/07/29 00:48:29;;;;;;;7.93;2.10;;;14.60;99.90;;;;;;4914769;28;20137;-88
2022/07/29 00:50:57;;;;;;;8.75;2.00;;;14.60;99.90;;;;;;4947924;28;20035;-88
2022/07/29 00:53:24;;;;;;;4.50;1.90;;;14.60;99.90;;;;;;4945802;28;20054;-88
2022/07/29 00:55:50;;;;;;;6.65;2.17;;;14.70;99.90;;;;;;4945312;28;20074;-88
2022/07/29 00:58:16;;;;;;;7.75;2.05;;;14.80;99.90;;;;;;4913442;29;20133;-87
2022/07/29 01:00:42;;;;;;;7.32;1.90;;;14.60;99.90;;;;;;4946991;28;20405;-87
2022/07/29 01:03:08;;;;;;;7.10;2.00;;;14.60;99.90;;;;;;4929683;28;20066;-88
2022/07/29 01:05:34;;;;;;;7.63;2.10;;;14.70;99.90;;;;;;4945947;28;20532;-88
2022/07/29 01:08:01;;;;;;;7.03;1.70;;;14.60;99.90;;;;;;4914756;29;20091;-88
2022/07/29 01:10:27;;;;;;;6.85;1.80;;;14.60;99.90;;;;;;4933873;29;20055;-87
2022/07/29 01:12:55;;;;;;;6.45;2.10;;;14.70;99.90;;;;;;4933002;28;20046;-87
2022/07/29 01:15:21;;;;;;;4.28;1.67;;;14.70;99.90;;;;;;4951560;28;20051;-88
2022/07/29 01:17:59;;;;;;;5.25;1.80;;;14.70;99.90;;;;;;4917865;29;20050;-87
2022/07/29 01:21:02;;;;;;;6.78;2.10;;;14.70;99.90;;;;;;4935433;28;20060;-87
2022/07/29 01:23:38;;;;;;;6.95;1.98;;;14.70;99.90;;;;;;4947735;28;20043;-87
2022/07/29 01:26:31;;;;;;;5.60;2.08;;;14.70;99.90;;;;;;4934943;28;20134;-87
2022/07/29 01:28:56;;;;;;;7.20;2.05;;;14.70;99.90;;;;;;4948605;28;20473;-87
2022/07/29 01:31:35;;;;;;;7.40;2.00;;;14.70;99.90;;;;;;4948686;28;20064;-88
2022/07/29 01:34:06;;;;;;;7.22;2.10;;;14.70;99.90;;;;;;4964611;28;20597;-87
2022/07/29 01:36:44;;;;;;;7.25;2.40;;;14.70;99.90;;;;;;4934850;28;20082;-87
2022/07/29 01:39:30;;;;;;;6.63;2.20;;;14.70;99.90;;;;;;4932280;28;20051;-88
2022/07/29 01:42:18;;;;;;;6.15;2.10;;;14.70;99.90;;;;;;4944876;28;20069;-87
2022/07/29 01:45:02;;;;;;;7.15;2.08;;;14.70;99.90;;;;;;4946313;28;20119;-87
2022/07/29 01:47:37;;;;;;;7.35;2.53;;;14.70;99.90;;;;;;4933107;28;20255;-87
2022/07/29 01:50:08;;;;;;;7.13;2.00;;;14.80;99.90;;;;;;4950318;28;20083;-88
2022/07/29 01:52:37;;;;;;;6.43;2.20;;;14.70;99.90;;;;;;4931419;28;20043;-88
2022/07/29 01:55:11;;;;;;;4.60;2.00;;;14.70;99.90;;;;;;4934288;29;20078;-87
2022/07/29 01:57:40;;;;;;;6.35;2.08;;;14.70;99.90;;;;;;4932642;28;20050;-87
2022/07/29 02:00:07;;;;;;;7.38;2.00;;;14.70;99.90;;;;;;4932639;28;20101;-87
2022/07/29 02:02:35;;;;;;;6.25;2.10;;;14.70;99.90;;;;;;4932267;29;20047;-87
2022/07/29 02:05:02;;;;;;;5.72;1.90;;;14.70;99.90;;;;;;4934621;28;20040;-87
2022/07/29 02:07:30;;;;;;;6.75;2.00;;;14.70;99.90;;;;;;4949878;28;20054;-86
2022/07/29 02:09:58;;;;;;;6.28;2.08;;;14.70;99.90;;;;;;4950523;28;20035;-87
2022/07/29 02:12:25;;;;;;;6.20;1.88;;;14.70;99.90;;;;;;4935283;28;20113;-87
2022/07/29 02:14:54;;;;;;;9.52;2.67;;;14.70;99.90;;;;;;4949072;28;20062;-87
2022/07/29 02:17:28;;;;;;;5.90;1.85;;;14.70;99.90;;;;;;4933495;28;20042;-87
2022/07/29 02:20:01;;;;;;;7.03;2.42;;;14.70;99.90;;;;;;4935133;29;20074;-87
2022/07/29 02:22:29;;;;;;;7.00;2.00;;;14.80;99.90;;;;;;4934165;28;20043;-86
2022/07/29 02:24:57;;;;;;;5.78;1.88;;;14.80;99.90;;;;;;4967856;28;20666;-87
2022/07/29 02:27:24;;;;;;;5.20;1.70;;;14.80;99.90;;;;;;4960921;28;20047;-87
2022/07/29 02:29:51;;;;;;;5.88;1.90;;;14.80;99.90;;;;;;4922527;29;20086;-88
2022/07/29 02:32:19;;;;;;;8.27;2.08;;;14.80;99.90;;;;;;4916699;29;20036;-87
2022/07/29 02:34:47;;;;;;;5.15;1.80;;;14.80;99.90;;;;;;4916042;28;20222;-87
2022/07/29 02:37:15;;;;;;;5.68;1.85;;;14.80;99.90;;;;;;4933554;28;20039;-87
2022/07/29 02:39:44;;;;;;;8.18;2.55;;;14.80;99.90;;;;;;4933756;28;20386;-87
2022/07/29 02:42:14;;;;;;;6.60;2.30;;;14.80;99.90;;;;;;4932264;28;20416;-87
2022/07/29 02:44:40;;;;;;;6.97;1.90;;;14.80;99.90;;;;;;4947013;28;20399;-87
2022/07/29 02:47:32;;;;;;;5.97;1.90;;;14.90;99.90;;;;;;4917042;29;20122;-87
2022/07/29 02:50:11;;;;;;;7.57;1.93;;;14.90;99.90;;;;;;4949362;28;20067;-87
2022/07/29 02:52:44;;;;;;;8.57;2.28;;;14.90;99.90;;;;;;4929784;29;20035;-87
2022/07/29 02:55:31;;;;;;;6.43;2.00;;;14.90;99.90;;;;;;4930929;28;20042;-87
2022/07/29 02:58:26;;;;;;;6.90;2.00;;;14.90;99.90;;;;;;4932436;29;20042;-88
2022/07/29 03:00:53;;;;;;;7.40;2.00;;;14.90;99.90;;;;;;4948888;28;20239;-87
2022/07/29 03:03:21;;;;;;;7.65;2.35;;;14.90;99.90;;;;;;4932316;29;20126;-88
2022/07/29 03:05:46;;;;;;;6.95;1.80;;;14.80;99.90;;;;;;4916152;28;20240;-87
2022/07/29 03:08:14;;;;;;;6.30;1.90;;;14.90;99.90;;;;;;4930494;28;20035;-87
2022/07/29 03:10:43;;;;;;;6.65;2.00;;;14.80;99.90;;;;;;4917354;29;20035;-87
2022/07/29 03:13:12;;;;;;;6.40;1.92;;;14.80;99.90;;;;;;4947544;28;20039;-88
2022/07/29 03:15:38;;;;;;;6.85;2.00;;;14.80;99.90;;;;;;4931885;28;20070;-87
2022/07/29 03:18:06;;;;;;;6.55;2.13;;;14.80;99.90;;;;;;4931041;28;20412;-87
2022/07/29 03:20:32;;;;;;;5.70;1.98;;;14.80;99.90;;;;;;4948619;28;20528;-88
2022/07/29 03:22:57;;;;;;;6.93;2.00;;;14.80;99.90;;;;;;4901088;29;20097;-88
2022/07/29 03:25:23;;;;;;;5.88;2.00;;;14.80;99.90;;;;;;4931465;29;20051;-87
2022/07/29 03:27:49;;;;;;;4.75;1.77;;;14.80;99.90;;;;;;4915135;28;20519;-87
2022/07/29 03:30:15;;;;;;;9.35;2.22;;;14.80;99.90;;;;;;4918137;28;20036;-87
2022/07/29 03:32:41;;;;;;;8.02;2.22;;;14.80;99.90;;;;;;4931523;28;20039;-87
2022/07/29 03:35:08;;;;;;;5.30;1.85;;;14.70;99.90;;;;;;4947071;28;20035;-87
2022/07/29 03:37:36;;;;;;;6.03;1.90;;;14.70;99.90;;;;;;4945541;28;20073;-87
2022/07/29 03:40:05;;;;;;;7.20;2.10;;;14.70;99.90;;;;;;4931578;29;20071;-87
2022/07/29 03:42:33;;;;;;;6.78;2.13;;;14.70;99.90;;;;;;4946133;28;20051;-87
2022/07/29 03:45:05;;;;;;;7.10;2.08;;;14.70;99.90;;;;;;4930819;28;20449;-87
2022/07/29 03:47:32;;;;;;;6.00;2.00;;;14.70;99.90;;;;;;4930432;28;20786;-87
2022/07/29 03:50:06;;;;;;;6.07;1.88;;;14.70;99.90;;;;;;4931347;28;20122;-87
2022/07/29 03:52:32;;;;;;;7.25;2.08;;;14.70;99.90;;;;;;4931651;28;20039;-87
2022/07/29 03:54:58;;;;;;;6.90;1.90;;;14.70;99.90;;;;;;4932194;28;20512;-87
2022/07/29 03:57:27;;;;;;;7.80;2.03;;;14.70;99.90;;;;;;4931030;28;20049;-88
2022/07/29 03:59:54;;;;;;;6.97;2.10;;;14.70;99.90;;;;;;4947648;28;20049;-87
2022/07/29 04:02:20;;;;;;;8.50;2.03;;;14.70;99.90;;;;;;4947680;28;20563;-87
2022/07/29 04:04:46;;;;;;;6.20;2.00;;;14.70;99.90;;;;;;4915869;28;20070;-87
2022/07/29 04:07:13;;;;;;;9.80;2.25;;;14.80;99.90;;;;;;4930270;28;20043;-87
2022/07/29 04:09:39;;;;;;;7.80;2.00;;;14.80;99.90;;;;;;4929325;28;20572;-87
2022/07/29 04:12:05;;;;;;;7.32;2.13;;;14.80;99.90;;;;;;4932375;28;20035;-87
2022/07/29 04:14:32;;;;;;;9.35;2.20;;;14.80;99.90;;;;;;4932534;28;20101;-86
2022/07/29 04:16:59;;;;;;;6.32;2.20;;;14.80;99.90;;;;;;4930890;28;20043;-87
2022/07/29 04:19:25;;;;;;;6.50;1.90;;;14.80;99.90;;;;;;4929954;28;20046;-87
2022/07/29 04:21:51;;;;;;;5.82;2.05;;;14.80;99.90;;;;;;4934842;28;20031;-87
2022/07/29 04:24:17;;;;;;;7.60;1.90;;;14.80;99.90;;;;;;4877013;28;1107047;-87
2022/07/29 04:26:45;;;;;;;7.47;2.15;;;14.80;99.90;;;;;;4929766;28;20191;-87
2022/07/29 04:29:11;;;;;;;6.78;2.05;;;14.80;99.90;;;;;;4945576;28;20046;-88
2022/07/29 04:31:37;;;;;;;5.85;1.88;;;14.90;99.90;;;;;;4931139;29;20039;-87
2022/07/29 04:34:03;;;;;;;7.00;2.20;;;14.90;99.90;;;;;;4946089;28;20041;-87
2022/07/29 04:36:29;;;;;;;7.38;2.10;;;14.90;99.90;;;;;;4930935;28;20125;-87
2022/07/29 04:38:54;;;;;;;6.07;1.90;;;14.90;99.90;;;;;;4914537;28;20062;-87
2022/07/29 04:41:20;;;;;;;10.10;2.33;;;14.90;99.90;;;;;;4928980;29;20071;-88
2022/07/29 04:43:46;;;;;;;4.78;1.90;;;14.90;99.90;;;;;;4930960;28;20066;-86
2022/07/29 04:46:11;;;;;;;5.95;1.92;;;15.00;99.90;;;;;;4919160;28;20396;-88
2022/07/29 04:48:37;;;;;;;7.97;2.13;;;14.90;99.90;;;;;;4918626;29;20054;-87
2022/07/29 04:51:03;;;;;;;6.80;1.90;;;15.00;99.90;;;;;;4919592;29;20046;-87
2022/07/29 04:53:29;;;;;;;6.45;1.80;;;15.00;99.90;;;;;;4932813;28;20046;-87
2022/07/29 04:55:55;;;;;;;4.85;1.80;;;15.00;99.90;;;;;;4949872;28;20093;-87
2022/07/29 04:58:22;;;;;;;8.02;2.17;;;15.00;99.90;;;;;;4949058;28;20043;-87
2022/07/29 05:00:48;;;;;;;7.18;2.10;;;15.00;99.90;;;;;;4948853;28;20508;-87
2022/07/29 05:03:14;;;;;;;7.13;2.00;;;15.10;99.90;;;;;;4947098;28;20039;-88
2022/07/29 05:05:40;;;;;;;6.50;1.90;;;15.00;99.90;;;;;;4932817;28;20043;-87
2022/07/29 05:08:06;;;;;;;6.88;2.17;;;15.10;99.90;;;;;;4947693;28;20147;-87
2022/07/29 05:10:33;;;;;;;6.20;1.95;;;15.10;99.90;;;;;;4949168;28;20035;-87
2022/07/29 05:12:59;;;;;;;5.95;2.05;;;15.10;99.90;;;;;;4932305;28;20098;-88
2022/07/29 05:15:25;;;;;;;6.78;1.95;;;15.10;99.90;;;;;;4920301;29;20039;-87
2022/07/29 05:17:51;;;;;;;7.03;2.03;;;15.10;99.90;;;;;;4919839;29;20456;-87
2022/07/29 05:20:18;;;;;;;7.50;2.10;;;15.20;99.90;;;;;;4933236;28;20035;-87
2022/07/29 05:22:44;;;;;;;7.05;2.00;;;15.20;99.90;;;;;;4936192;28;20496;-87
2022/07/29 05:25:09;;;;;;;7.32;2.13;;;15.20;99.90;;;;;;4935537;28;20134;-87
2022/07/29 05:27:36;;;;;;;6.95;2.05;;;15.20;99.90;;;;;;4935482;29;20043;-87
2022/07/29 05:30:02;;;;;;;7.30;2.03;;;15.20;99.90;;;;;;4919232;28;20090;-87
2022/07/29 05:32:28;;;;;;;7.15;2.10;;;15.30;99.90;;;;;;4919173;29;20469;-88
2022/07/29 05:34:54;;;;;;;5.20;1.90;;;15.30;99.90;;;;;;4932636;28;20095;-87
2022/07/29 05:37:20;;;;;;;5.68;1.90;;;15.30;99.90;;;;;;4930988;28;20039;-87
2022/07/29 05:39:46;;;;;;;7.35;2.40;;;15.40;99.90;;;;;;4914914;28;20134;-88
2022/07/29 05:42:12;;;;;;;8.07;2.15;;;15.40;99.90;;;;;;4897755;29;20501;-87
2022/07/29 05:44:38;;;;;;;9.02;2.17;;;15.50;99.90;;;;;;4919289;28;20043;-87
2022/07/29 05:47:04;;;;;;;7.68;2.15;;;15.50;99.90;;;;;;4951629;28;20035;-87
2022/07/29 05:49:30;;;;;;;6.10;1.90;;;15.60;99.90;;;;;;4919622;29;20559;-87
2022/07/29 05:51:56;;;;;;;7.57;2.20;;;15.60;99.90;;;;;;4935726;29;20090;-87
2022/07/29 05:54:21;;;;;;;6.80;2.10;;;15.60;99.90;;;;;;4935221;29;20506;-88
2022/07/29 05:56:47;;;;;;;8.40;2.08;;;15.70;99.90;;;;;;4917192;28;20051;-87
2022/07/29 05:59:13;;;;;;;7.57;1.90;;;15.70;99.90;;;;;;4935287;29;20040;-87
2022/07/29 06:01:39;;;;;;;9.38;2.25;;;15.70;99.90;;;;;;4919121;28;20078;-87
2022/07/29 06:04:06;;;;;;;7.85;2.17;;;15.80;99.90;;;;;;4935881;29;20046;-87
2022/07/29 06:06:33;;;;;;;7.55;2.28;;;15.80;99.90;;;;;;4950943;28;20054;-87
2022/07/29 06:08:59;;;;;;;6.28;2.03;;;15.90;99.90;;;;;;4934675;29;20031;-87
2022/07/29 06:11:25;;;;;;;7.10;2.13;;;15.90;99.90;;;;;;4929337;28;20075;-88
2022/07/29 06:13:51;;;;;;;8.70;2.00;;;15.90;99.90;;;;;;4931774;28;20082;-88
2022/07/29 06:16:16;;;;;;;7.72;2.10;;;15.90;99.90;;;;;;4946280;28;20102;-90
2022/07/29 06:18:42;;;;;;;5.93;1.98;;;16.00;99.90;;;;;;4950284;28;20039;-90
2022/07/29 06:21:09;;;;;;;5.93;2.05;;;16.00;99.90;;;;;;4916485;29;20555;-90
2022/07/29 06:23:39;;;;;;;6.65;2.05;;;16.10;99.90;;;;;;4931790;28;20047;-90
2022/07/29 06:26:05;;;;;;;6.97;2.05;;;16.10;99.90;;;;;;4917160;28;20047;-89
2022/07/29 06:28:31;;;;;;;5.82;2.15;;;16.20;99.90;;;;;;4947644;28;20054;-89
2022/07/29 06:30:57;;;;;;;5.90;2.00;;;16.20;99.90;;;;;;4934520;28;20429;-89
2022/07/29 06:33:23;;;;;;;7.18;2.20;;;16.20;99.90;;;;;;4947292;28;20039;-88
2022/07/29 06:35:49;;;;;;;8.35;1.90;;;16.30;99.90;;;;;;4916986;29;20071;-88
2022/07/29 06:38:14;;;;;;;5.50;1.90;;;16.30;99.90;;;;;;4917290;29;20071;-88
2022/07/29 06:41:04;;;;;;;6.25;1.60;;;16.40;99.90;;;;;;4916947;29;20061;-89
2022/07/29 06:43:37;;;;;;;6.28;1.95;;;16.40;99.90;;;;;;4920510;28;20077;-87
2022/07/29 06:46:07;;;;;;;8.98;2.30;;;16.50;99.90;;;;;;4930241;28;20061;-88
2022/07/29 06:48:35;;;;;;;9.10;2.08;;;16.50;99.90;;;;;;4933986;29;20035;-87
2022/07/29 06:51:02;;;;;;;7.43;2.47;;;16.60;99.90;;;;;;4917699;28;20035;-89
2022/07/29 06:53:29;;;;;;;6.07;1.98;;;16.70;99.90;;;;;;4932262;29;20435;-89
2022/07/29 06:55:55;;;;;;;5.45;2.00;;;16.70;99.90;;;;;;4935178;29;20051;-90
2022/07/29 06:58:21;;;;;;;6.50;1.88;;;16.70;99.90;;;;;;4932262;29;20043;-88
2022/07/29 07:00:48;;;;;;;8.27;2.20;;;16.80;99.90;;;;;;4916270;29;20094;-87
2022/07/29 07:03:15;;;;;;;6.60;1.90;;;16.90;99.90;;;;;;4916797;29;20554;-87
2022/07/29 07:05:41;;;;;;;7.35;2.28;;;16.90;99.90;;;;;;4947679;28;20043;-87
2022/07/29 07:08:07;;;;;;;8.20;2.20;;;17.00;99.90;;;;;;4920638;29;20122;-88
2022/07/29 07:10:33;;;;;;;5.88;1.98;;;17.10;99.90;;;;;;4932478;28;20481;-87
2022/07/29 07:13:00;;;;;;;6.97;2.45;;;17.10;99.90;;;;;;4940665;29;20047;-90
2022/07/29 07:15:26;;;;;;;6.75;2.03;;;17.10;99.90;;;;;;4942092;28;20039;-89
2022/07/29 07:17:51;;;;;;;7.00;2.20;;;17.20;99.90;;;;;;4951990;28;20110;-90
2022/07/29 07:20:20;;;;;;;6.68;2.42;;;17.30;99.90;;;;;;4933765;28;20035;-89
2022/07/29 07:22:45;;;;;;;8.32;2.38;;;17.30;99.90;;;;;;4917183;29;20086;-89
2022/07/29 07:25:12;;;;;;;6.93;2.33;;;17.40;99.90;;;;;;4916336;28;20090;-89
2022/07/29 07:27:38;;;;;;;5.72;2.10;;;17.40;99.90;;;;;;4928610;29;20039;-87
2022/07/29 07:30:05;;;;;;;7.72;2.20;;;17.30;99.90;;;;;;4931392;29;20050;-88
2022/07/29 07:32:32;;;;;;;8.00;2.47;;;17.40;99.90;;;;;;4930221;28;20118;-89
2022/07/29 07:34:58;;;;;;;8.25;2.20;;;17.30;99.90;;;;;;4915545;28;20117;-91
2022/07/29 07:37:25;;;;;;;9.35;2.97;;;17.40;99.90;;;;;;4915627;29;20098;-90
2022/07/29 07:39:51;;;;;;;9.02;2.10;;;17.40;99.90;;;;;;4934789;29;20035;-88
2022/07/29 07:42:17;;;;;;;7.97;2.22;;;17.40;99.90;;;;;;4917262;29;20105;-88
2022/07/29 07:44:45;;;;;;;8.57;2.40;;;17.40;99.90;;;;;;4929980;28;20721;-90
2022/07/29 07:47:11;;;;;;;7.93;2.22;;;17.40;99.90;;;;;;4915029;28;20035;-91
2022/07/29 07:49:37;;;;;;;6.65;2.05;;;17.40;99.90;;;;;;4917522;29;20036;-89
2022/07/29 07:52:03;;;;;;;7.63;1.95;;;17.50;99.90;;;;;;4915028;29;20129;-89
2022/07/29 07:54:29;;;;;;;8.40;2.30;;;17.50;99.90;;;;;;4946777;28;20039;-89
2022/07/29 07:56:54;;;;;;;7.18;2.15;;;17.50;99.90;;;;;;4931055;29;20031;-90
2022/07/29 07:59:20;;;;;;;8.48;2.28;;;17.50;99.90;;;;;;4916265;28;20042;-89
2022/07/29 08:01:46;;;;;;;8.65;2.20;;;17.60;99.90;;;;;;4933499;29;20447;-88
2022/07/29 08:04:11;;;;;;;5.78;1.90;;;17.60;99.90;;;;;;4915173;28;20122;-88
2022/07/29 08:06:37;;;;;;;6.95;2.13;;;17.60;99.90;;;;;;4931071;29;20136;-89
2022/07/29 08:09:04;;;;;;;7.25;2.17;;;17.70;99.90;;;;;;4916131;29;20115;-90
2022/07/29 08:11:30;;;;;;;7.00;2.05;;;17.80;99.90;;;;;;4915174;28;20039;-87
2022/07/29 08:13:56;;;;;;;7.45;2.30;;;17.80;99.90;;;;;;4914708;28;20050;-89
2022/07/29 08:16:22;;;;;;;5.88;2.00;;;17.90;99.90;;;;;;4948192;28;20047;-89
2022/07/29 08:18:47;;;;;;;6.50;2.45;;;17.90;99.90;;;;;;4932553;28;20047;-88
2022/07/29 08:21:15;;;;;;;6.95;1.98;;;17.90;99.90;;;;;;4932592;28;20031;-87
2022/07/29 08:23:52;;;;;;;6.60;2.10;;;17.90;99.90;;;;;;4915210;28;20106;-89
2022/07/29 08:26:19;;;;;;;7.30;2.28;;;18.00;99.90;;;;;;4930745;29;20134;-88
2022/07/29 08:28:49;;;;;;;7.03;2.20;;;18.10;99.90;;;;;;4931722;28;20073;-88
2022/07/29 08:31:16;;;;;;;7.68;2.40;;;18.20;99.90;;;;;;4932563;29;20516;-89
2022/07/29 08:33:42;;;;;;;7.00;2.05;;;18.30;99.90;;;;;;4917455;28;20031;-89
2022/07/29 08:36:08;;;;;;;7.82;2.50;;;18.40;99.90;;;;;;4928220;29;20043;-90
2022/07/29 08:38:34;;;;;;;8.63;2.50;;;18.40;99.90;;;;;;4932920;29;20039;-89
2022/07/29 08:41:03;;;;;;;7.28;2.22;;;18.40;99.90;;;;;;4947891;28;20110;-89
2022/07/29 08:43:29;;;;;;;7.72;2.10;;;18.40;99.90;;;;;;4914432;28;20043;-91
2022/07/29 08:45:55;;;;;;;6.75;2.10;;;18.40;99.90;;;;;;4926696;29;20062;-88
2022/07/29 08:48:22;;;;;;;9.70;2.50;;;18.40;99.90;;;;;;4928778;29;20147;-87
2022/07/29 08:50:51;;;;;;;7.93;2.55;;;18.40;99.90;;;;;;4946966;28;20082;-87
2022/07/29 08:53:17;;;;;;;7.03;2.20;;;18.40;99.90;;;;;;4931881;29;20082;-88
2022/07/29 08:55:45;;;;;;;7.78;2.40;;;18.50;99.90;;;;;;4946584;28;20042;-87
2022/07/29 08:58:11;;;;;;;7.03;2.08;;;18.50;99.90;;;;;;4914646;28;20456;-89
2022/07/29 09:00:45;;;;;;;7.15;2.38;;;18.50;99.90;;;;;;4933867;29;20043;-89
2022/07/29 09:03:17;;;;;;;5.72;2.10;;;18.50;99.90;;;;;;4945811;28;20070;-90
2022/07/29 09:05:45;;;;;;;6.20;2.27;;;18.40;99.90;;;;;;4931115;28;20047;-90
2022/07/29 09:08:12;;;;;;;7.38;2.25;;;18.50;99.90;;;;;;4915694;29;20811;-89
2022/07/29 09:10:38;;;;;;;7.97;2.58;;;18.50;99.90;;;;;;4950107;28;20102;-91
2022/07/29 09:13:07;;;;;;;8.10;2.33;;;18.60;99.90;;;;;;4931455;29;20469;-90
2022/07/29 09:15:33;;;;;;;10.02;2.20;;;18.60;99.90;;;;;;4928641;29;20045;-91
2022/07/29 09:17:59;;;;;;;6.45;2.28;;;18.60;99.90;;;;;;4931290;29;20126;-88
2022/07/29 09:21:57;;;;;;;7.30;2.22;;;18.60;99.90;;;;;;4931246;28;20051;-90
2022/07/29 09:23:13;;;;;;;8.30;2.40;;;18.60;99.90;;;;;;4948667;28;20138;-88
2022/07/29 09:25:40;;;;;;;9.40;2.25;;;18.60;99.90;;;;;;4915217;29;20062;-88
2022/07/29 09:28:16;;;;;;;8.60;2.35;;;18.60;99.90;;;;;;4917467;28;20067;-89
2022/07/29 09:30:56;;;;;;;8.13;2.42;;;18.60;99.90;;;;;;4919348;29;20187;-87
2022/07/29 09:33:24;;;;;;;7.72;2.38;;;18.70;99.90;;;;;;4952619;28;20075;-89
2022/07/29 09:36:06;;;;;;;8.38;2.38;;;18.70;99.90;;;;;;4947884;28;20137;-89
2022/07/29 09:38:33;;;;;;;6.57;2.00;;;18.80;99.90;;;;;;4932968;29;20043;-89
2022/07/29 09:41:01;;;;;;;7.63;2.50;;;18.80;99.90;;;;;;4934681;29;20125;-91
2022/07/29 09:43:27;;;;;;;7.65;2.20;;;18.70;99.90;;;;;;4935143;29;20039;-89
2022/07/29 09:45:52;;;;;;;7.10;2.22;;;18.80;99.90;;;;;;4935231;29;20035;-91
2022/07/29 09:48:20;;;;;;;9.18;2.85;;;18.80;99.90;;;;;;4933716;29;20039;-90
2022/07/29 09:50:49;;;;;;;6.65;2.15;;;18.80;99.90;;;;;;4934922;29;20134;-92
2022/07/29 09:53:39;;;;;;;7.65;2.38;;;18.90;99.90;;;;;;4951548;28;20045;-91
2022/07/29 09:56:05;;;;;;;5.50;2.03;;;18.90;99.90;;;;;;4940184;28;20047;-91
2022/07/29 09:58:35;;;;;;;8.50;2.40;;;18.90;99.90;;;;;;4934275;28;20051;-88
2022/07/29 10:01:01;;;;;;;8.23;2.38;;;18.90;99.90;;;;;;4946699;28;20043;-88
2022/07/29 10:03:27;;;;;;;8.90;2.30;;;19.00;99.90;;;;;;4947308;28;20047;-89
2022/07/29 10:06:10;;;;;;;7.88;2.55;;;19.00;99.90;;;;;;4897922;28;20133;-89
2022/07/29 10:08:36;;;;;;;7.82;2.63;;;19.00;99.90;;;;;;4946226;28;20127;-89
2022/07/29 10:11:09;;;;;;;11.05;2.95;;;19.00;99.90;;;;;;4919568;28;20046;-88
2022/07/29 10:13:35;;;;;;;7.80;2.30;;;19.00;99.90;;;;;;4935406;28;20130;-88
2022/07/29 10:16:01;;;;;;;7.88;2.33;;;19.10;99.90;;;;;;4919063;29;21293;-88
2022/07/29 10:18:27;;;;;;;10.02;2.85;;;19.10;99.90;;;;;;4951348;28;20167;-89
2022/07/29 10:20:53;;;;;;;7.65;2.22;;;19.10;99.90;;;;;;4951131;28;20077;-89
2022/07/29 10:23:19;;;;;;;10.57;2.90;;;19.20;99.90;;;;;;4934922;29;20090;-89
2022/07/29 10:25:45;;;;;;;7.75;2.38;;;19.20;99.90;;;;;;4919161;28;20501;-89
2022/07/29 10:28:11;;;;;;;7.35;2.50;;;19.30;99.90;;;;;;4948496;28;20086;-89
2022/07/29 10:30:39;;;;;;;7.55;2.45;;;19.30;99.90;;;;;;4934594;29;20085;-90
2022/07/29 10:33:26;;;;;;;8.20;2.40;;;19.30;99.90;;;;;;4934956;29;20039;-89
2022/07/29 10:36:09;;;;;;;7.93;2.50;;;19.30;99.90;;;;;;4945413;28;20050;-90
2022/07/29 10:39:12;;;;;;;8.30;3.08;;;19.30;99.90;;;;;;4932965;28;20051;-89
2022/07/29 10:42:10;;;;;;;9.18;2.45;;;19.30;99.90;;;;;;4946428;28;20139;-89
2022/07/29 10:44:40;;;;;;;6.50;2.30;;;19.30;99.90;;;;;;4948136;28;20055;-88
2022/07/29 10:47:06;;;;;;;8.05;2.55;;;19.40;99.90;;;;;;4930930;28;20504;-88
2022/07/29 10:49:32;;;;;;;9.02;2.20;;;19.40;99.90;;;;;;4950251;28;20035;-88
2022/07/29 10:52:09;;;;;;;8.38;2.47;;;19.40;99.90;;;;;;4913548;28;20039;-88
2022/07/29 10:54:34;;;;;;;8.05;2.60;;;19.50;99.90;;;;;;4947642;28;20066;-89
2022/07/29 10:57:15;;;;;;;9.00;2.60;;;19.60;99.90;;;;;;4947605;28;20035;-88
2022/07/29 10:59:43;;;;;;;12.00;2.67;;;19.70;99.90;;;;;;4947457;28;20035;-88
2022/07/29 11:02:36;;;;;;;9.65;2.88;;;19.80;99.90;;;;;;4945651;28;20649;-89
2022/07/29 11:05:14;;;;;;;9.07;2.70;;;19.90;99.90;;;;;;4928826;28;20046;-90
2022/07/29 11:08:08;;;;;;;8.52;2.55;;;20.00;99.90;;;;;;4912983;29;20584;-89
2022/07/29 11:10:34;;;;;;;10.35;2.72;;;20.10;99.90;;;;;;4950391;28;20046;-89
2022/07/29 11:13:00;;;;;;;8.82;2.80;;;20.10;99.90;;;;;;4938307;29;20047;-88
2022/07/29 11:15:26;;;;;;;7.72;2.60;;;20.10;99.90;;;;;;4950151;28;20512;-88
2022/07/29 11:17:56;;;;;;;8.15;2.45;;;20.20;99.90;;;;;;4918553;28;20039;-89
2022/07/29 11:20:32;;;;;;;10.52;2.65;;;20.30;99.90;;;;;;4934180;29;20047;-90
2022/07/29 11:22:59;;;;;;;11.18;2.70;;;20.40;99.90;;;;;;4950392;29;20039;-90
2022/07/29 11:25:24;;;;;;;6.57;2.53;;;20.50;99.90;;;;;;4919056;29;20416;-89
2022/07/29 11:27:53;;;;;;;8.23;2.40;;;20.60;99.90;;;;;;4915927;29;20192;-90
2022/07/29 11:30:19;;;;;;;7.38;2.65;;;20.70;99.90;;;;;;4946736;28;20050;-90
2022/07/29 11:32:46;;;;;;;8.93;2.55;;;20.70;99.90;;;;;;4948388;28;20071;-90
2022/07/29 11:35:17;;;;;;;7.90;2.60;;;20.70;99.90;;;;;;4915650;29;20035;-89
2022/07/29 11:37:43;;;;;;;11.35;2.72;;;20.80;99.90;;;;;;4937017;28;20206;-89
2022/07/29 11:40:12;;;;;;;7.60;2.63;;;20.80;99.90;;;;;;4917678;29;20042;-89
2022/07/29 11:42:40;;;;;;;10.55;2.75;;;20.90;99.90;;;;;;4934852;28;20405;-90
2022/07/29 11:45:46;;;;;;;8.05;2.70;;;21.00;99.90;;;;;;4940408;29;20050;-89
2022/07/29 11:48:17;;;;;;;8.10;2.47;;;21.10;99.90;;;;;;4921614;29;20122;-89
2022/07/29 11:50:44;;;;;;;7.32;2.25;;;21.20;99.90;;;;;;4922055;28;20047;-89
2022/07/29 11:53:12;;;;;;;7.32;2.40;;;21.40;99.90;;;;;;4960679;28;20047;-90
2022/07/29 11:55:40;;;;;;;10.90;2.47;;;21.50;99.90;;;;;;4940119;29;20051;-90
2022/07/29 11:58:05;;;;;;;9.20;2.60;;;21.70;99.90;;;;;;4932508;28;20125;-90
2022/07/29 12:00:39;;;;;;;10.30;2.47;;;22.10;99.90;;;;;;4933367;29;20055;-89
2022/07/29 12:03:07;;;;;;;10.02;2.83;;;22.10;99.90;;;;;;4931130;29;20066;-88
2022/07/29 12:05:45;;;;;;;7.88;2.50;;;22.40;99.90;;;;;;4931303;28;20505;-90
2022/07/29 12:08:15;;;;;;;9.48;2.58;;;22.50;99.90;;;;;;4933240;29;20047;-89
2022/07/29 12:10:43;;;;;;;8.35;2.67;;;22.80;99.90;;;;;;4934278;29;20035;-89
2022/07/29 12:13:10;;;;;;;7.88;2.60;;;23.00;99.90;;;;;;4932008;28;20054;-88
2022/07/29 12:15:36;;;;;;;10.02;2.30;;;23.10;99.90;;;;;;4918547;29;20492;-89
2022/07/29 12:18:13;;;;;;;9.35;2.60;;;23.20;99.90;;;;;;4933909;28;20041;-89
2022/07/29 12:20:39;;;;;;;7.82;2.60;;;23.20;99.90;;;;;;4933965;29;20039;-89
2022/07/29 12:23:07;;;;;;;7.20;2.50;;;23.20;99.90;;;;;;4917464;29;20055;-88
2022/07/29 12:25:34;;;;;;;8.30;2.47;;;23.20;99.90;;;;;;4932385;28;20095;-89
2022/07/29 12:28:09;;;;;;;7.60;2.45;;;23.20;99.90;;;;;;4934022;29;20051;-89
2022/07/29 12:30:53;;;;;;;6.97;2.42;;;23.40;99.90;;;;;;4949705;28;20166;-88
2022/07/29 12:33:23;;;;;;;14.63;2.30;;;23.40;99.90;;;;;;4932019;29;20047;-88
2022/07/29 12:35:58;;;;;;;7.30;2.42;;;23.50;99.90;;;;;;4915358;29;20046;-89
2022/07/29 12:38:25;;;;;;;7.72;2.30;;;23.40;99.90;;;;;;4936999;28;20050;-89
2022/07/29 12:40:53;;;;;;;9.43;2.30;;;23.40;99.90;;;;;;4938047;28;20043;-89
2022/07/29 12:43:21;;;;;;;8.20;2.35;;;23.40;99.90;;;;;;4928382;29;20267;-89
2022/07/29 12:45:53;;;;;;;8.73;2.33;;;23.40;99.90;;;;;;4917274;29;20043;-89
2022/07/29 12:48:33;;;;;;;8.70;2.25;;;23.50;99.90;;;;;;4950066;29;20039;-90
2022/07/29 12:51:03;;;;;;;7.47;2.20;;;23.60;99.90;;;;;;4932876;29;20624;-89
2022/07/29 12:53:30;;;;;;;8.20;2.42;;;23.70;99.90;;;;;;4931748;28;20126;-89
2022/07/29 12:55:59;;;;;;;9.60;2.38;;;23.80;99.90;;;;;;4934002;29;20040;-89